createdAt,value
2022-09-25T00:00:04.337Z,95276.14
2022-09-25T00:02:30.786Z,95267.56
2022-09-25T00:04:57.069Z,95274.02
2022-09-25T00:07:23.401Z,95266.73
2022-09-25T00:09:49.751Z,95259.95
2022-09-25T00:12:16.101Z,95263.94
2022-09-25T00:14:42.449Z,95260.89
2022-09-25T00:17:08.800Z,95260.89
2022-09-25T00:19:35.125Z,95259.70
2022-09-25T00:22:01.467Z,95257.95
2022-09-25T00:24:27.805Z,95261.95
2022-09-25T00:26:54.138Z,95251.30
2022-09-25T00:29:20.578Z,95251.30
2022-09-25T00:31:46.848Z,95251.63
2022-09-25T00:34:13.311Z,95251.63
2022-09-25T00:36:39.576Z,95247.86
2022-09-25T00:39:05.924Z,95250.12
2022-09-25T00:41:32.299Z,95222.09
2022-09-25T00:43:58.639Z,95222.09
2022-09-25T00:46:26.242Z,95242.84
2022-09-25T00:48:51.325Z,95240.72
2022-09-25T00:51:17.662Z,95236.84
2022-09-25T00:53:44.008Z,95242.59
2022-09-25T00:56:10.350Z,95240.00
2022-09-25T00:58:36.702Z,95240.00
2022-09-25T01:01:03.105Z,95238.71
2022-09-25T01:03:29.389Z,95243.08
2022-09-25T01:05:55.745Z,95242.72
2022-09-25T01:08:22.097Z,95242.26
2022-09-25T01:10:48.440Z,95240.25
2022-09-25T01:13:14.798Z,95234.29
2022-09-25T01:15:41.140Z,95233.80
2022-09-25T01:18:07.517Z,95225.36
2022-09-25T01:20:33.859Z,95224.89
2022-09-25T01:23:00.226Z,95227.94
2022-09-25T01:25:26.559Z,95230.99
2022-09-25T01:27:52.904Z,95231.13
2022-09-25T01:30:19.241Z,95232.42
2022-09-25T01:32:45.586Z,95235.47
2022-09-25T01:35:11.931Z,95232.06
2022-09-25T01:37:38.312Z,95230.41
2022-09-25T01:40:04.698Z,95231.23
2022-09-25T01:42:31.070Z,95236.77
2022-09-25T01:44:57.408Z,95240.73
2022-09-25T01:47:23.748Z,95240.27
2022-09-25T01:49:50.087Z,95238.16
2022-09-25T01:52:16.431Z,95239.12
2022-09-25T01:54:42.768Z,95241.45
2022-09-25T01:57:09.111Z,95242.99
2022-09-25T01:59:35.450Z,95243.45
2022-09-25T02:02:01.851Z,95240.66
2022-09-25T02:04:28.143Z,95238.54
2022-09-25T02:06:54.488Z,95238.54
2022-09-25T02:09:20.837Z,95242.27
2022-09-25T02:11:47.178Z,95236.28
2022-09-25T02:14:13.565Z,95231.63
2022-09-25T02:16:39.906Z,95226.20
2022-09-25T02:19:06.210Z,95232.66
2022-09-25T02:21:32.565Z,95230.55
2022-09-25T02:23:58.908Z,95228.78
2022-09-25T02:26:25.296Z,95228.45
2022-09-25T02:28:51.628Z,95232.80
2022-09-25T02:31:18.020Z,95239.25
2022-09-25T02:33:44.303Z,95235.95
2022-09-25T02:36:10.658Z,95240.18
2022-09-25T02:38:36.997Z,95248.06
2022-09-25T02:41:03.342Z,95248.06
2022-09-25T02:43:29.682Z,95248.06
2022-09-25T02:45:56.099Z,95235.73
2022-09-25T02:48:22.369Z,95234.66
2022-09-25T02:50:48.754Z,95231.03
2022-09-25T02:53:15.092Z,95227.16
2022-09-25T02:55:41.470Z,95228.45
2022-09-25T02:58:07.813Z,95233.61
2022-09-25T03:00:34.171Z,95239.59
2022-09-25T03:03:01.723Z,95238.91
2022-09-25T03:05:26.852Z,95234.58
2022-09-25T03:07:53.184Z,95238.09
2022-09-25T03:10:19.537Z,95236.33
2022-09-25T03:12:45.876Z,95236.44
2022-09-25T03:15:12.220Z,95232.92
2022-09-25T03:17:38.566Z,95236.68
2022-09-25T03:20:04.965Z,95246.44
2022-09-25T03:22:33.237Z,95239.62
2022-09-25T03:24:57.646Z,95231.52
2022-09-25T03:27:23.988Z,95229.30
2022-09-25T03:29:50.340Z,95229.90
2022-09-25T03:32:16.688Z,95226.36
2022-09-25T03:34:43.035Z,95222.95
2022-09-25T03:37:09.410Z,95220.04
2022-09-25T03:39:35.749Z,95216.86
2022-09-25T03:42:02.094Z,95214.73
2022-09-25T03:44:28.487Z,95214.52
2022-09-25T03:46:54.824Z,95218.03
2022-09-25T03:49:21.176Z,95221.90
2022-09-25T03:51:47.516Z,95217.70
2022-09-25T03:54:13.962Z,95225.56
2022-09-25T03:56:40.234Z,95225.56
2022-09-25T03:59:07.540Z,95230.25
2022-09-25T04:01:33.042Z,95228.95
2022-09-25T04:03:59.305Z,95230.71
2022-09-25T04:06:25.652Z,95228.13
2022-09-25T04:08:51.994Z,95239.38
2022-09-25T04:11:18.326Z,95245.73
2022-09-25T04:13:44.721Z,95243.15
2022-09-25T04:16:11.056Z,95244.55
2022-09-25T04:18:37.391Z,95244.55
2022-09-25T04:21:03.727Z,95254.54
2022-09-25T04:23:30.109Z,95252.78
2022-09-25T04:25:57.690Z,95252.89
2022-09-25T04:28:22.802Z,95250.77
2022-09-25T04:30:49.149Z,95258.98
2022-09-25T04:33:15.492Z,95256.07
2022-09-25T04:35:41.835Z,95260.27
2022-09-25T04:38:08.182Z,95260.27
2022-09-25T04:40:34.563Z,95256.90
2022-09-25T04:43:02.122Z,95255.61
2022-09-25T04:45:27.212Z,95254.78
2022-09-25T04:47:54.579Z,95257.83
2022-09-25T04:50:20.916Z,95256.53
2022-09-25T04:52:47.263Z,95257.22
2022-09-25T04:55:13.620Z,95254.31
2022-09-25T04:57:57.707Z,95241.88
2022-09-25T05:00:06.317Z,95244.09
2022-09-25T05:02:32.845Z,95240.23
2022-09-25T05:04:59.010Z,95241.05
2022-09-25T05:07:25.347Z,95237.55
2022-09-25T05:09:51.695Z,95243.50
2022-09-25T05:12:18.032Z,95250.67
2022-09-25T05:14:44.382Z,95259.34
2022-09-25T05:17:10.725Z,95263.21
2022-09-25T05:19:37.108Z,95258.05
2022-09-25T05:22:03.442Z,95258.98
2022-09-25T05:24:29.812Z,95252.29
2022-09-25T05:26:56.152Z,95255.37
2022-09-25T05:29:22.533Z,95252.78
2022-09-25T05:31:48.906Z,95245.84
2022-09-25T05:34:15.220Z,95246.66
2022-09-25T05:36:41.558Z,95251.36
2022-09-25T05:39:12.174Z,95245.37
2022-09-25T05:41:34.240Z,95245.73
2022-09-25T05:44:00.589Z,95241.03
2022-09-25T05:46:27.013Z,95239.64
2022-09-25T05:48:53.285Z,95245.95
2022-09-25T05:51:19.826Z,95255.35
2022-09-25T05:53:46.170Z,95249.25
2022-09-25T05:56:12.512Z,95249.72
2022-09-25T05:58:38.878Z,95257.33
2022-09-25T06:01:05.207Z,95264.50
2022-09-25T06:03:31.566Z,95257.69
2022-09-25T06:05:57.893Z,95261.92
2022-09-25T06:08:24.246Z,95259.08
2022-09-25T06:10:50.591Z,95254.17
2022-09-25T06:13:16.940Z,95254.50
2022-09-25T06:15:43.317Z,95246.30
2022-09-25T06:18:09.638Z,95245.83
2022-09-25T06:20:35.969Z,95254.76
2022-09-25T06:23:03.590Z,95259.42
2022-09-25T06:25:28.716Z,95259.09
2022-09-25T06:27:55.082Z,95254.63
2022-09-25T06:30:21.419Z,95256.60
2022-09-25T06:32:48.863Z,95248.86
2022-09-25T06:35:15.208Z,95259.55
2022-09-25T06:37:41.559Z,95258.25
2022-09-25T06:40:08.056Z,95252.16
2022-09-25T06:42:34.248Z,95250.51
2022-09-25T06:45:00.586Z,95252.84
2022-09-25T06:47:27.126Z,95265.39
2022-09-25T06:49:53.295Z,95267.77
2022-09-25T06:52:19.628Z,95265.98
2022-09-25T06:54:45.980Z,95259.41
2022-09-25T06:57:12.354Z,95256.83
2022-09-25T06:59:38.692Z,95255.08
2022-09-25T07:02:05.135Z,95257.88
2022-09-25T07:04:31.383Z,95257.41
2022-09-25T07:06:57.726Z,95253.08
2022-09-25T07:09:24.069Z,95251.18
2022-09-25T07:11:50.414Z,95251.31
2022-09-25T07:14:16.752Z,95252.94
2022-09-25T07:16:43.098Z,95255.41
2022-09-25T07:19:09.454Z,95260.58
2022-09-25T07:21:35.802Z,95265.28
2022-09-25T07:24:02.135Z,95270.30
2022-09-25T07:26:28.498Z,95274.31
2022-09-25T07:28:54.821Z,95278.52
2022-09-25T07:31:21.227Z,95282.86
2022-09-25T07:33:47.549Z,95281.56
2022-09-25T07:36:13.897Z,95280.63
2022-09-25T07:38:40.234Z,95276.76
2022-09-25T07:41:06.609Z,95281.92
2022-09-25T07:43:32.960Z,95275.93
2022-09-25T07:45:59.315Z,95265.83
2022-09-25T07:48:25.671Z,95263.24
2022-09-25T07:50:52.020Z,95258.44
2022-09-25T07:53:18.368Z,95256.32
2022-09-25T07:55:44.731Z,95245.88
2022-09-25T07:58:11.072Z,95233.80
2022-09-25T08:00:37.429Z,95234.63
2022-09-25T08:03:03.790Z,95231.22
2022-09-25T08:05:30.103Z,95221.58
2022-09-25T08:07:56.445Z,95219.92
2022-09-25T08:10:24.982Z,95225.09
2022-09-25T08:12:51.321Z,95222.39
2022-09-25T08:15:17.667Z,95220.17
2022-09-25T08:17:44.017Z,95217.23
2022-09-25T08:20:10.369Z,95225.66
2022-09-25T08:22:36.711Z,95229.07
2022-09-25T08:25:03.058Z,95230.25
2022-09-25T08:27:29.393Z,95225.41
2022-09-25T08:29:55.733Z,95218.17
2022-09-25T08:32:22.070Z,95208.16
2022-09-25T08:34:48.774Z,95208.05
2022-09-25T08:37:14.771Z,95204.04
2022-09-25T08:39:41.115Z,95185.28
2022-09-25T08:42:07.456Z,95191.95
2022-09-25T08:44:33.807Z,95189.51
2022-09-25T08:47:00.151Z,95187.72
2022-09-25T08:49:26.494Z,95187.72
2022-09-25T08:51:52.891Z,95187.47
2022-09-25T08:54:19.244Z,95179.42
2022-09-25T08:56:45.577Z,95179.42
2022-09-25T08:59:11.915Z,95198.41
2022-09-25T09:01:38.291Z,95191.34
2022-09-25T09:04:04.600Z,95191.95
2022-09-25T09:06:33.345Z,95188.79
2022-09-25T09:08:59.692Z,95187.25
2022-09-25T09:11:26.029Z,95185.03
2022-09-25T09:13:52.409Z,95176.20
2022-09-25T09:16:18.728Z,95176.20
2022-09-25T09:18:45.055Z,95174.80
2022-09-25T09:21:11.401Z,95168.23
2022-09-25T09:23:37.786Z,95161.78
2022-09-25T09:26:04.123Z,95157.30
2022-09-25T09:28:30.462Z,95151.55
2022-09-25T09:30:56.865Z,95142.41
2022-09-25T09:33:23.150Z,95142.88
2022-09-25T09:35:49.505Z,95139.83
2022-09-25T09:38:15.861Z,95146.39
2022-09-25T09:40:42.212Z,95144.05
2022-09-25T09:43:08.520Z,95145.46
2022-09-25T09:45:34.857Z,95139.83
2022-09-25T09:48:01.197Z,95139.36
2022-09-25T09:50:27.533Z,95136.17
2022-09-25T09:52:53.874Z,95134.88
2022-09-25T09:55:20.215Z,95136.05
2022-09-25T09:57:46.556Z,95137.92
2022-09-25T10:00:12.891Z,95132.65
2022-09-25T10:02:39.379Z,95125.98
2022-09-25T10:05:05.608Z,95129.13
2022-09-25T10:07:31.961Z,95129.13
2022-09-25T10:09:58.303Z,95131.60
2022-09-25T10:12:24.703Z,95122.09
2022-09-25T10:14:52.168Z,95118.22
2022-09-25T10:17:17.454Z,95125.61
2022-09-25T10:19:43.791Z,95119.16
2022-09-25T10:22:10.171Z,95120.66
2022-09-25T10:24:36.519Z,95112.44
2022-09-25T10:27:02.868Z,95117.03
2022-09-25T10:29:29.215Z,95113.27
2022-09-25T10:31:55.558Z,95109.28
2022-09-25T10:34:21.908Z,95107.98
2022-09-25T10:36:48.281Z,95100.09
2022-09-25T10:39:39.601Z,95095.14
2022-09-25T10:41:40.970Z,95094.11
2022-09-25T10:44:07.328Z,95085.52
2022-09-25T10:46:33.721Z,95077.16
2022-09-25T10:48:59.988Z,95081.95
2022-09-25T10:51:26.333Z,95076.99
2022-09-25T10:53:52.671Z,95077.46
2022-09-25T10:56:19.016Z,95079.41
2022-09-25T10:58:45.362Z,95069.66
2022-09-25T11:01:11.772Z,95063.44
2022-09-25T11:03:38.101Z,95069.49
2022-09-25T11:06:04.451Z,95070.20
2022-09-25T11:08:30.791Z,95060.55
2022-09-25T11:10:57.192Z,95051.59
2022-09-25T11:13:23.523Z,95051.59
2022-09-25T11:15:49.869Z,95054.11
2022-09-25T11:18:16.207Z,95057.38
2022-09-25T11:20:42.559Z,95051.16
2022-09-25T11:23:08.902Z,95048.16
2022-09-25T11:25:35.261Z,95043.54
2022-09-25T11:28:01.600Z,95041.05
2022-09-25T11:30:27.946Z,95025.53
2022-09-25T11:32:54.337Z,95025.53
2022-09-25T11:35:20.709Z,95036.28
2022-09-25T11:37:47.026Z,95035.19
2022-09-25T11:40:13.474Z,95017.41
2022-09-25T11:42:39.725Z,95017.41
2022-09-25T11:45:06.068Z,95027.92
2022-09-25T11:47:32.408Z,95022.88
2022-09-25T11:49:58.767Z,95022.88
2022-09-25T11:52:25.108Z,95018.26
2022-09-25T11:54:51.448Z,95013.31
2022-09-25T11:57:17.788Z,95013.36
2022-09-25T11:59:44.160Z,95009.71
2022-09-25T12:02:10.546Z,95009.20
2022-09-25T12:04:41.265Z,94987.17
2022-09-25T12:07:03.179Z,94987.17
2022-09-25T12:09:29.516Z,94993.84
2022-09-25T12:11:55.853Z,95004.66
2022-09-25T12:14:22.194Z,94993.29
2022-09-25T12:16:48.668Z,94983.48
2022-09-25T12:19:14.931Z,94979.34
2022-09-25T12:21:41.268Z,94971.93
2022-09-25T12:24:07.674Z,94983.11
2022-09-25T12:26:34.000Z,94983.11
2022-09-25T12:29:00.338Z,94971.50
2022-09-25T12:31:26.720Z,94968.28
2022-09-25T12:33:53.025Z,94917.37
2022-09-25T12:36:19.357Z,94953.27
2022-09-25T12:38:45.692Z,94948.09
2022-09-25T12:41:12.039Z,94952.20
2022-09-25T12:43:38.376Z,94961.43
2022-09-25T12:46:04.768Z,94964.36
2022-09-25T12:48:31.053Z,94959.48
2022-09-25T12:51:01.463Z,94950.63
2022-09-25T12:53:23.729Z,94943.09
2022-09-25T12:55:50.060Z,94947.34
2022-09-25T12:58:16.401Z,94942.17
2022-09-25T13:00:42.736Z,94939.19
2022-09-25T13:03:09.075Z,94935.25
2022-09-25T13:05:35.423Z,94930.06
2022-09-25T13:08:01.762Z,94928.86
2022-09-25T13:10:28.098Z,94928.12
2022-09-25T13:12:54.444Z,94924.98
2022-09-25T13:15:20.775Z,94910.94
2022-09-25T13:17:47.125Z,94905.35
2022-09-25T13:20:13.466Z,94896.64
2022-09-25T13:22:39.810Z,94901.21
2022-09-25T13:25:06.182Z,94892.16
2022-09-25T13:27:37.355Z,94895.58
2022-09-25T13:29:58.881Z,94888.41
2022-09-25T13:32:25.230Z,94888.41
2022-09-25T13:34:51.575Z,94888.37
2022-09-25T13:37:17.925Z,94882.52
2022-09-25T13:39:44.268Z,94885.28
2022-09-25T13:42:10.621Z,94889.16
2022-09-25T13:44:37.024Z,94882.95
2022-09-25T13:47:03.341Z,94878.26
2022-09-25T13:49:29.692Z,94878.20
2022-09-25T13:51:56.030Z,94875.61
2022-09-25T13:54:22.374Z,94871.25
2022-09-25T13:56:48.736Z,94864.06
2022-09-25T13:59:15.243Z,94862.89
2022-09-25T14:01:41.641Z,94863.58
2022-09-25T14:04:07.837Z,94863.11
2022-09-25T14:06:38.855Z,94863.77
2022-09-25T14:09:00.522Z,94862.73
2022-09-25T14:11:26.875Z,94861.85
2022-09-25T14:13:53.207Z,94860.34
2022-09-25T14:16:19.589Z,94858.36
2022-09-25T14:18:45.902Z,94866.27
2022-09-25T14:21:12.248Z,94862.03
2022-09-25T14:23:38.586Z,94856.11
2022-09-25T14:26:04.939Z,94856.92
2022-09-25T14:28:31.273Z,94856.11
2022-09-25T14:30:57.633Z,94849.02
2022-09-25T14:33:23.963Z,94853.38
2022-09-25T14:35:50.310Z,94854.84
2022-09-25T14:38:16.694Z,94847.20
2022-09-25T14:40:43.116Z,94853.69
2022-09-25T14:43:09.385Z,94854.40
2022-09-25T14:45:35.770Z,94860.77
2022-09-25T14:48:02.077Z,94854.34
2022-09-25T14:50:28.419Z,94857.34
2022-09-25T14:52:54.765Z,94854.43
2022-09-25T14:55:21.133Z,94851.01
2022-09-25T14:57:47.459Z,94850.58
2022-09-25T15:00:13.854Z,94850.63
2022-09-25T15:02:40.237Z,94854.69
2022-09-25T15:05:06.513Z,94851.38
2022-09-25T15:07:35.336Z,94848.50
2022-09-25T15:10:01.712Z,94850.05
2022-09-25T15:12:28.018Z,94857.08
2022-09-25T15:14:54.381Z,94864.56
2022-09-25T15:17:20.715Z,94863.64
2022-09-25T15:19:47.054Z,94857.17
2022-09-25T15:22:13.404Z,94865.77
2022-09-25T15:24:39.735Z,94854.41
2022-09-25T15:27:06.077Z,94861.89
2022-09-25T15:29:32.660Z,94857.81
2022-09-25T15:31:58.996Z,94856.65
2022-09-25T15:34:25.330Z,94853.05
2022-09-25T15:36:51.685Z,94850.38
2022-09-25T15:39:18.020Z,94852.50
2022-09-25T15:41:44.555Z,94849.84
2022-09-25T15:44:11.068Z,94850.00
2022-09-25T15:46:37.250Z,94854.98
2022-09-25T15:49:03.586Z,94851.50
2022-09-25T15:51:29.935Z,94850.69
2022-09-25T15:53:56.269Z,94847.43
2022-09-25T15:56:22.615Z,94849.73
2022-09-25T15:58:48.953Z,94846.33
2022-09-25T16:01:15.363Z,94842.73
2022-09-25T16:03:41.646Z,94841.24
2022-09-25T16:06:08.084Z,94839.25
2022-09-25T16:08:34.417Z,94838.78
2022-09-25T16:11:00.759Z,94840.34
2022-09-25T16:13:27.103Z,94833.93
2022-09-25T16:15:53.499Z,94832.94
2022-09-25T16:18:19.775Z,94832.22
2022-09-25T16:20:46.128Z,94834.80
2022-09-25T16:23:12.462Z,94840.40
2022-09-25T16:25:38.865Z,94836.72
2022-09-25T16:28:05.151Z,94840.59
2022-09-25T16:30:31.495Z,94828.56
2022-09-25T16:32:57.831Z,94845.94
2022-09-25T16:35:24.183Z,94841.83
2022-09-25T16:37:50.511Z,94829.72
2022-09-25T16:40:16.963Z,94845.56
2022-09-25T16:42:43.260Z,94850.81
2022-09-25T16:45:09.598Z,94851.21
2022-09-25T16:47:35.937Z,94858.69
2022-09-25T16:50:02.284Z,94852.16
2022-09-25T16:52:28.618Z,94849.92
2022-09-25T16:54:54.968Z,94852.16
2022-09-25T16:57:21.308Z,94853.67
2022-09-25T16:59:47.648Z,94863.48
2022-09-25T17:02:14.146Z,94862.58
2022-09-25T17:04:40.328Z,94869.39
2022-09-25T17:07:06.686Z,94865.37
2022-09-25T17:09:33.021Z,94869.31
2022-09-25T17:11:59.353Z,94859.68
2022-09-25T17:14:25.694Z,94868.11
2022-09-25T17:16:52.031Z,94877.70
2022-09-25T17:19:18.378Z,94873.95
2022-09-25T17:21:44.710Z,94880.29
2022-09-25T17:24:11.061Z,94884.64
2022-09-25T17:26:37.410Z,94897.38
2022-09-25T17:29:03.827Z,94893.70
2022-09-25T17:31:30.183Z,94883.55
2022-09-25T17:33:56.432Z,94897.97
2022-09-25T17:36:22.770Z,94897.19
2022-09-25T17:38:49.111Z,94891.73
2022-09-25T17:41:15.446Z,94888.61
2022-09-25T17:43:41.783Z,94887.31
2022-09-25T17:46:08.188Z,94891.19
2022-09-25T17:48:34.457Z,94909.61
2022-09-25T17:51:00.795Z,94909.61
2022-09-25T17:53:27.133Z,94901.81
2022-09-25T17:55:54.153Z,94896.91
2022-09-25T17:58:19.811Z,94901.81
2022-09-25T18:00:46.145Z,94907.77
2022-09-25T18:03:12.578Z,94910.52
2022-09-25T18:05:38.824Z,94914.39
2022-09-25T18:08:05.166Z,94926.11
2022-09-25T18:10:31.498Z,94929.44
2022-09-25T18:12:57.845Z,94931.87
2022-09-25T18:15:24.357Z,94937.05
2022-09-25T18:17:50.526Z,94940.10
2022-09-25T18:20:16.894Z,94932.50
2022-09-25T18:22:43.231Z,94939.31
2022-09-25T18:25:09.567Z,94942.69
2022-09-25T18:27:35.918Z,94948.69
2022-09-25T18:30:02.250Z,94922.42
2022-09-25T18:32:28.615Z,94922.42
2022-09-25T18:34:54.945Z,94934.61
2022-09-25T18:37:21.315Z,94927.05
2022-09-25T18:39:47.647Z,94929.76
2022-09-25T18:42:13.981Z,94929.76
2022-09-25T18:44:42.869Z,94919.37
2022-09-25T18:47:06.670Z,94925.68
2022-09-25T18:49:33.000Z,94925.41
2022-09-25T18:51:59.350Z,94928.47
2022-09-25T18:54:25.694Z,94928.47
2022-09-25T18:56:52.028Z,94933.52
2022-09-25T18:59:18.360Z,94945.27
2022-09-25T19:01:44.907Z,94941.27
2022-09-25T19:04:11.091Z,94944.06
2022-09-25T19:06:37.435Z,94944.06
2022-09-25T19:09:03.773Z,94942.92
2022-09-25T19:11:30.118Z,94943.04
2022-09-25T19:13:56.454Z,94947.07
2022-09-25T19:16:22.859Z,94936.57
2022-09-25T19:18:49.126Z,94938.02
2022-09-25T19:21:15.464Z,94924.58
2022-09-25T19:23:41.793Z,94931.13
2022-09-25T19:26:08.151Z,94936.84
2022-09-25T19:28:34.465Z,94931.00
2022-09-25T19:31:00.853Z,94936.17
2022-09-25T19:33:27.180Z,94936.17
2022-09-25T19:35:54.414Z,94937.59
2022-09-25T19:38:20.748Z,94936.30
2022-09-25T19:40:47.125Z,94939.70
2022-09-25T19:43:13.430Z,94946.30
2022-09-25T19:45:39.815Z,94950.52
2022-09-25T19:48:06.160Z,94937.47
2022-09-25T19:50:32.502Z,94944.05
2022-09-25T19:52:58.857Z,94942.91
2022-09-25T19:55:25.201Z,94945.63
2022-09-25T19:57:51.530Z,94939.08
2022-09-25T20:00:17.881Z,94950.17
2022-09-25T20:02:44.258Z,94945.97
2022-09-25T20:05:10.598Z,94945.77
2022-09-25T20:07:36.933Z,94945.77
2022-09-25T20:10:03.269Z,94950.44
2022-09-25T20:12:29.609Z,94936.18
2022-09-25T20:14:55.950Z,94951.06
2022-09-25T20:17:22.294Z,94930.22
2022-09-25T20:19:48.632Z,94930.22
2022-09-25T20:22:14.974Z,94926.18
2022-09-25T20:24:41.309Z,94954.13
2022-09-25T20:27:07.640Z,94954.13
2022-09-25T20:29:33.979Z,94960.73
2022-09-25T20:32:00.321Z,94940.56
2022-09-25T20:34:26.734Z,94947.11
2022-09-25T20:36:53.070Z,94945.46
2022-09-25T20:39:21.344Z,94930.96
2022-09-25T20:41:45.749Z,94930.96
2022-09-25T20:44:12.172Z,94943.34
2022-09-25T20:46:38.493Z,94933.31
2022-09-25T20:49:04.790Z,94933.31
2022-09-25T20:51:31.126Z,94939.59
2022-09-25T20:53:57.506Z,94935.23
2022-09-25T20:56:23.838Z,94935.70
2022-09-25T20:58:53.268Z,94935.70
2022-09-25T21:01:16.573Z,94945.58
2022-09-25T21:03:42.896Z,94939.73
2022-09-25T21:06:09.228Z,94935.23
2022-09-25T21:08:35.574Z,94935.23
2022-09-25T21:11:01.930Z,94922.57
2022-09-25T21:13:28.243Z,94923.86
2022-09-25T21:15:54.581Z,94927.35
2022-09-25T21:18:20.919Z,94918.81
2022-09-25T21:20:47.262Z,94918.81
2022-09-25T21:23:13.601Z,94930.61
2022-09-25T21:25:39.939Z,94929.23
2022-09-25T21:28:06.273Z,94921.68
2022-09-25T21:30:32.690Z,94921.68
2022-09-25T21:32:58.993Z,94918.78
2022-09-25T21:35:25.363Z,94914.42
2022-09-25T21:37:51.712Z,94927.27
2022-09-25T21:40:18.119Z,94916.78
2022-09-25T21:42:44.395Z,94916.93
2022-09-25T21:45:10.730Z,94916.93
2022-09-25T21:47:37.070Z,94908.36
2022-09-25T21:50:03.406Z,94894.41
2022-09-25T21:52:29.756Z,94905.77
2022-09-25T21:54:56.120Z,94905.77
2022-09-25T21:57:22.517Z,94870.05
2022-09-25T21:59:48.864Z,94870.05
2022-09-25T22:02:15.200Z,94881.33
2022-09-25T22:04:41.564Z,94881.33
2022-09-25T22:07:07.907Z,94888.42
2022-09-25T22:12:14.597Z,94894.87
2022-09-25T22:14:40.933Z,94894.87
2022-09-25T22:17:07.348Z,94883.39
2022-09-25T22:19:33.649Z,94883.39
2022-09-25T22:22:00.005Z,94882.57
2022-09-25T22:24:26.417Z,94886.58
2022-09-25T22:26:52.807Z,94888.48
2022-09-25T22:29:19.176Z,94884.93
2022-09-25T22:31:45.512Z,94876.66
2022-09-25T22:34:11.864Z,94882.14
2022-09-25T22:36:38.234Z,94882.14
2022-09-25T22:39:04.722Z,94902.97
2022-09-25T22:41:31.056Z,94903.80
2022-09-25T22:44:00.531Z,94903.80
2022-09-25T22:46:23.846Z,94909.91
2022-09-25T22:48:50.136Z,94907.44
2022-09-25T22:51:16.484Z,94886.43
2022-09-25T22:53:42.847Z,94886.43
2022-09-25T22:56:09.179Z,94908.06
2022-09-25T22:58:35.541Z,94908.06
2022-09-25T23:01:01.958Z,94917.58
2022-09-25T23:03:28.241Z,94915.93
2022-09-25T23:05:54.590Z,94909.97
2022-09-25T23:08:20.967Z,94904.57
2022-09-25T23:11:06.063Z,94898.53
2022-09-25T23:13:13.684Z,94903.08
2022-09-25T23:15:40.023Z,94900.49
2022-09-25T23:18:06.366Z,94899.27
2022-09-25T23:20:32.726Z,94911.77
2022-09-25T23:22:59.072Z,94911.77
2022-09-25T23:25:25.408Z,94907.98
2022-09-25T23:27:51.775Z,94894.50
2022-09-25T23:30:18.148Z,94883.34
2022-09-25T23:32:44.538Z,94873.63
2022-09-25T23:35:10.870Z,94874.45
2022-09-25T23:37:37.249Z,94885.93
2022-09-25T23:40:03.584Z,94902.25
2022-09-25T23:42:29.937Z,94902.25
2022-09-25T23:44:56.359Z,94897.83
2022-09-25T23:47:22.702Z,94867.44
2022-09-25T23:49:49.057Z,94882.47
2022-09-25T23:52:15.405Z,94882.47
2022-09-25T23:54:41.761Z,94888.11
2022-09-25T23:57:08.106Z,94859.55
2022-09-25T23:59:34.474Z,94860.84
